Time;durP1;ratioP1;P1;durP2;ratioP2;P2;SDS_P1;SDS_P2;PMS_P1;PMS_P2;Temp;Humidity;BMP_temperature;BMP_pressure;BME280_temperature;BME280_humidity;BME280_pressure;Samples;Min_cycle;Max_cycle;Signal;HPM_P1;HPM_P2
2023/02/12 00:00:36;;;;;;;13.35;10.15;;;;;;;-1.82;100.00;94703.28;2090268;28;20035;-85
2023/02/12 00:01:40;;;;;;;16.00;11.07;;;;;;;-1.85;100.00;94703.88;2091284;28;20024;-83
2023/02/12 00:02:41;;;;;;;16.63;10.85;;;;;;;-1.83;100.00;94706.97;2094814;28;20458;-84
2023/02/12 00:03:42;;;;;;;14.82;10.68;;;;;;;-1.81;100.00;94702.22;2086046;28;20025;-85
2023/02/12 00:04:43;;;;;;;15.07;10.98;;;;;;;-1.84;100.00;94700.19;2086375;28;20021;-83
2023/02/12 00:05:44;;;;;;;15.55;11.32;;;;;;;-1.79;100.00;94703.47;2083428;28;20037;-85
2023/02/12 00:06:46;;;;;;;15.88;11.20;;;;;;;-1.77;100.00;94690.06;2080196;28;20371;-84
2023/02/12 00:07:47;;;;;;;15.65;10.75;;;;;;;-1.71;100.00;94698.56;2087745;28;20466;-84
2023/02/12 00:08:53;;;;;;;14.57;11.35;;;;;;;-1.71;100.00;94709.84;2079833;28;20035;-83
2023/02/12 00:09:54;;;;;;;12.50;9.73;;;;;;;-1.66;100.00;94694.00;2080739;28;20385;-85
2023/02/12 00:10:55;;;;;;;16.55;10.70;;;;;;;-1.68;100.00;94698.75;2085937;28;20032;-84
2023/02/12 00:11:57;;;;;;;15.60;11.15;;;;;;;-1.71;100.00;94699.38;2077885;28;20891;-84
2023/02/12 00:12:58;;;;;;;13.52;10.68;;;;;;;-1.52;100.00;94701.78;2082571;28;20021;-82
2023/02/12 00:14:01;;;;;;;13.63;11.00;;;;;;;-1.56;100.00;94701.59;2081089;28;20033;-82
2023/02/12 00:15:02;;;;;;;13.10;10.75;;;;;;;-1.58;100.00;94702.97;2083372;28;20560;-83
2023/02/12 00:16:05;;;;;;;17.10;10.75;;;;;;;-1.65;100.00;94708.66;2081403;28;20463;-86
2023/02/12 00:17:06;;;;;;;17.15;11.60;;;;;;;-1.63;100.00;94708.34;2092417;28;20214;-83
2023/02/12 00:18:09;;;;;;;18.13;11.75;;;;;;;-1.52;100.00;94702.56;2084064;28;20025;-84
2023/02/12 00:19:10;;;;;;;16.75;11.65;;;;;;;-1.54;100.00;94714.41;2089163;28;20028;-84
2023/02/12 00:20:12;;;;;;;17.50;11.38;;;;;;;-1.57;100.00;94705.31;2087841;28;20029;-83
2023/02/12 00:21:16;;;;;;;16.13;11.32;;;;;;;-1.56;100.00;94700.84;2087412;28;20051;-84
2023/02/12 00:22:20;;;;;;;16.92;11.23;;;;;;;-1.55;100.00;94695.28;2095410;28;20493;-84
2023/02/12 00:23:21;;;;;;;14.93;11.25;;;;;;;-1.48;100.00;94700.13;2078697;28;20033;-82
2023/02/12 00:24:23;;;;;;;15.50;11.32;;;;;;;-1.47;100.00;94703.50;2080884;28;20243;-84
2023/02/12 00:25:24;;;;;;;15.52;11.35;;;;;;;-1.50;100.00;94701.47;2089748;28;20527;-84
2023/02/12 00:26:27;;;;;;;13.32;10.90;;;;;;;-1.53;100.00;94706.25;2095745;28;20028;-84
2023/02/12 00:27:33;;;;;;;17.83;11.38;;;;;;;-1.50;100.00;94714.59;2089178;28;20457;-81
2023/02/12 00:28:35;;;;;;;15.52;11.05;;;;;;;-1.52;100.00;94714.91;2080920;28;20025;-83
2023/02/12 00:29:37;;;;;;;16.55;11.45;;;;;;;-1.50;100.00;94712.72;2079848;28;20029;-85
2023/02/12 00:30:38;;;;;;;14.45;10.50;;;;;;;-1.50;100.00;94709.34;2088488;28;20024;-85
2023/02/12 00:31:39;;;;;;;13.65;10.70;;;;;;;-1.23;100.00;94706.53;2089568;28;20033;-85
2023/02/12 00:32:40;;;;;;;15.32;10.95;;;;;;;-1.19;100.00;94704.88;2081525;28;20124;-86
2023/02/12 00:33:41;;;;;;;16.20;11.52;;;;;;;-1.23;100.00;94709.16;2081377;28;20017;-82
2023/02/12 00:34:42;;;;;;;13.98;11.25;;;;;;;-1.26;100.00;94715.03;2081633;28;20469;-84
2023/02/12 00:35:44;;;;;;;14.43;10.80;;;;;;;-1.28;100.00;94709.31;2087525;28;20072;-85
2023/02/12 00:36:45;;;;;;;15.38;11.27;;;;;;;-1.35;100.00;94714.22;2094255;28;20074;-84
2023/02/12 00:37:45;;;;;;;15.75;10.82;;;;;;;-1.36;100.00;94707.41;2086878;28;20090;-85
2023/02/12 00:38:48;;;;;;;16.08;10.82;;;;;;;-1.29;100.00;94705.13;2086285;28;20025;-84
2023/02/12 00:39:50;;;;;;;15.15;11.00;;;;;;;-1.29;100.00;94703.28;2089161;28;20021;-83
2023/02/12 00:40:51;;;;;;;14.10;10.52;;;;;;;-1.31;100.00;94708.06;2091182;28;20035;-85
2023/02/12 00:41:52;;;;;;;13.13;10.18;;;;;;;-1.32;100.00;94705.72;2087495;28;20025;-83
2023/02/12 00:42:53;;;;;;;14.32;11.20;;;;;;;-1.23;100.00;94709.16;2083440;28;20076;-83
2023/02/12 00:43:54;;;;;;;14.50;10.63;;;;;;;-1.27;100.00;94708.25;2091944;28;20542;-83
2023/02/12 00:44:55;;;;;;;14.02;11.00;;;;;;;-1.29;100.00;94705.91;2088665;28;20025;-84
2023/02/12 00:45:56;;;;;;;13.68;10.65;;;;;;;-1.30;100.00;94706.22;2088550;28;20033;-84
2023/02/12 00:47:01;;;;;;;15.27;11.20;;;;;;;-1.21;100.00;94708.88;2087567;28;20120;-85
2023/02/12 00:48:03;;;;;;;16.48;11.13;;;;;;;-1.18;100.00;94709.06;2078107;28;20030;-85
2023/02/12 00:49:05;;;;;;;15.82;11.60;;;;;;;-1.21;100.00;94712.28;2086460;28;20032;-83
2023/02/12 00:50:07;;;;;;;15.32;11.00;;;;;;;-1.28;100.00;94709.31;2080740;28;20041;-86
2023/02/12 00:51:08;;;;;;;13.82;10.88;;;;;;;-1.27;100.00;94708.25;2080129;28;20375;-81
2023/02/12 00:52:11;;;;;;;14.95;10.77;;;;;;;-1.17;100.00;94707.97;2093935;28;20446;-85
2023/02/12 00:53:13;;;;;;;15.50;11.02;;;;;;;-1.19;100.00;94706.72;2093589;28;20397;-86
2023/02/12 00:54:14;;;;;;;15.45;11.55;;;;;;;-1.22;100.00;94699.47;2097272;28;20112;-86
2023/02/12 00:55:15;;;;;;;15.52;10.65;;;;;;;-1.14;100.00;94691.66;2093341;28;20508;-85
2023/02/12 00:56:16;;;;;;;13.65;10.70;;;;;;;-1.12;100.00;94699.97;2091545;28;20469;-84
2023/02/12 00:57:17;;;;;;;14.52;10.88;;;;;;;-1.13;100.00;94692.41;2088744;28;20041;-84
2023/02/12 00:58:19;;;;;;;16.33;10.55;;;;;;;-1.17;100.00;94697.50;2088714;28;20037;-83
2023/02/12 00:59:26;;;;;;;16.42;10.98;;;;;;;-1.21;100.00;94701.78;2080347;28;20026;-84
2023/02/12 01:00:28;;;;;;;13.68;11.02;;;;;;;-1.20;100.00;94692.06;2089562;28;20135;-85
2023/02/12 01:01:30;;;;;;;17.00;11.38;;;;;;;-1.22;100.00;94689.75;2090758;28;20529;-84
2023/02/12 01:02:32;;;;;;;14.65;10.98;;;;;;;-1.23;100.00;94693.44;2093743;28;20030;-86
2023/02/12 01:03:32;;;;;;;13.77;10.80;;;;;;;-1.14;100.00;94685.59;2088499;28;20025;-84
2023/02/12 01:04:34;;;;;;;15.45;11.48;;;;;;;-1.16;100.00;94693.78;2088144;28;20031;-84
2023/02/12 01:05:36;;;;;;;18.23;11.73;;;;;;;-1.21;100.00;94693.16;2095375;28;20144;-84
2023/02/12 01:06:37;;;;;;;15.25;12.00;;;;;;;-1.22;100.00;94689.75;2103232;28;20567;-85
2023/02/12 01:07:39;;;;;;;15.75;11.68;;;;;;;-1.18;100.00;94695.94;2094055;28;20020;-84
2023/02/12 01:08:40;;;;;;;16.27;11.35;;;;;;;-1.23;100.00;94701.31;2083151;28;20371;-85
2023/02/12 01:09:41;;;;;;;16.05;10.95;;;;;;;-1.18;100.00;94688.06;2091760;28;20024;-84
2023/02/12 01:10:43;;;;;;;15.07;11.55;;;;;;;-1.15;100.00;94691.94;2080130;28;20028;-83
2023/02/12 01:11:44;;;;;;;14.48;10.68;;;;;;;-1.16;100.00;94699.03;2084477;28;20141;-83
2023/02/12 01:12:47;;;;;;;15.30;11.25;;;;;;;-1.14;100.00;94694.28;2086619;28;20393;-85
2023/02/12 01:13:48;;;;;;;14.77;11.05;;;;;;;-1.08;100.00;94692.28;2088799;28;20149;-83
2023/02/12 01:14:49;;;;;;;14.27;11.30;;;;;;;-1.10;100.00;94689.16;2083926;28;20049;-84
2023/02/12 01:16:02;;;;;;;16.73;11.13;;;;;;;-1.10;100.00;94694.41;2083283;28;20107;-84
2023/02/12 01:17:03;;;;;;;16.77;11.20;;;;;;;-1.02;100.00;94697.06;2086070;28;20104;-85
2023/02/12 01:18:05;;;;;;;16.65;11.77;;;;;;;-1.03;100.00;94686.91;2085285;28;20064;-84
2023/02/12 01:19:06;;;;;;;15.00;10.60;;;;;;;-1.01;100.00;94687.34;2083109;28;20035;-86
2023/02/12 01:20:08;;;;;;;15.38;11.50;;;;;;;-1.05;100.00;94692.44;2083207;28;20139;-82
2023/02/12 01:21:21;;;;;;;14.57;11.07;;;;;;;-1.08;100.00;94687.81;2087418;28;20036;-82
2023/02/12 01:22:22;;;;;;;16.42;10.93;;;;;;;-1.08;100.00;94693.06;2091836;28;20024;-84
2023/02/12 01:23:24;;;;;;;14.23;10.82;;;;;;;-1.09;100.00;94691.50;2072168;28;20474;-85
2023/02/12 01:24:27;;;;;;;14.57;10.60;;;;;;;-1.12;100.00;94689.47;2083046;28;20038;-84
2023/02/12 01:25:28;;;;;;;15.95;11.43;;;;;;;-1.04;100.00;94690.59;2099921;28;20075;-84
2023/02/12 01:26:30;;;;;;;13.30;11.25;;;;;;;-0.98;100.00;94686.75;2097716;28;20093;-83
2023/02/12 01:27:32;;;;;;;14.60;11.07;;;;;;;-0.97;100.00;94692.78;2082124;28;20075;-82
2023/02/12 01:28:33;;;;;;;15.55;10.60;;;;;;;-1.02;100.00;94699.69;2073787;28;20379;-85
2023/02/12 01:29:35;;;;;;;16.35;10.85;;;;;;;-1.06;100.00;94693.50;2080848;28;20399;-84
2023/02/12 01:30:39;;;;;;;14.10;11.02;;;;;;;-0.99;100.00;94689.69;2090928;28;20032;-85
2023/02/12 01:31:41;;;;;;;13.77;10.73;;;;;;;-1.03;100.00;94687.66;2078225;28;20469;-84
2023/02/12 01:32:42;;;;;;;15.57;11.90;;;;;;;-0.98;100.00;94692.00;2072544;28;20378;-86
2023/02/12 01:33:47;;;;;;;13.43;11.00;;;;;;;-1.07;100.00;94688.56;2075807;28;20433;-85
2023/02/12 01:34:48;;;;;;;13.93;10.82;;;;;;;-1.08;100.00;94690.44;2083386;28;20029;-86
2023/02/12 01:35:49;;;;;;;14.85;10.88;;;;;;;-1.06;100.00;94688.25;2082565;28;20048;-85
2023/02/12 01:36:50;;;;;;;16.67;10.52;;;;;;;-1.04;100.00;94696.63;2075765;28;20022;-85
2023/02/12 01:37:51;;;;;;;14.15;10.00;;;;;;;-0.95;100.00;94693.25;2077795;28;20032;-83
2023/02/12 01:38:52;;;;;;;14.00;10.60;;;;;;;-0.98;100.00;94694.63;2077710;28;20017;-85
2023/02/12 01:39:53;;;;;;;17.55;12.25;;;;;;;-0.97;100.00;94692.78;2080831;28;20117;-84
2023/02/12 01:41:11;;;;;;;14.10;10.65;;;;;;;-1.00;100.00;94703.91;2083029;28;20113;-84
2023/02/12 01:42:17;;;;;;;15.13;10.80;;;;;;;-1.03;100.00;94698.16;2080057;28;20037;-87
2023/02/12 01:43:19;;;;;;;13.93;11.27;;;;;;;-1.04;100.00;94707.13;2083187;28;20116;-85
2023/02/12 01:44:25;;;;;;;15.68;10.93;;;;;;;-1.03;100.00;94708.66;2083421;28;20097;-85
2023/02/12 01:45:47;;;;;;;14.63;10.95;;;;;;;-1.00;100.00;94711.75;2085276;28;20117;-81
2023/02/12 01:46:55;;;;;;;13.90;10.38;;;;;;;-0.93;100.00;94697.09;2080201;28;20025;-83
2023/02/12 01:47:59;;;;;;;13.35;9.77;;;;;;;-0.79;100.00;94702.25;2075096;28;20076;-86
2023/02/12 01:49:03;;;;;;;14.98;10.27;;;;;;;-0.62;100.00;94704.91;2082606;28;20109;-83
2023/02/12 01:50:09;;;;;;;13.38;10.07;;;;;;;-0.79;100.00;94712.75;2083773;28;20033;-85
2023/02/12 01:51:15;;;;;;;13.68;10.45;;;;;;;-0.93;100.00;94712.09;2082571;28;20385;-84
2023/02/12 01:52:29;;;;;;;14.20;10.30;;;;;;;-0.94;100.00;94698.19;2089056;28;20117;-84
2023/02/12 01:53:37;;;;;;;13.35;9.43;;;;;;;-0.92;100.00;94709.19;2100268;28;20028;-85
2023/02/12 01:54:39;;;;;;;13.57;10.48;;;;;;;-0.95;100.00;94696.66;2084854;28;20374;-86
2023/02/12 01:55:41;;;;;;;13.65;10.60;;;;;;;-0.98;100.00;94707.75;2076093;28;20087;-83
2023/02/12 01:56:44;;;;;;;13.70;10.13;;;;;;;-1.02;100.00;94697.06;2094659;28;20064;-84
2023/02/12 01:57:47;;;;;;;14.27;11.20;;;;;;;-1.06;100.00;94696.13;2083645;28;20206;-86
2023/02/12 01:58:51;;;;;;;15.55;10.75;;;;;;;-1.04;100.00;94701.88;2081731;28;20028;-84
2023/02/12 01:59:57;;;;;;;14.40;10.68;;;;;;;-1.02;100.00;94704.94;2085272;28;20029;-81
2023/02/12 02:01:00;;;;;;;13.93;10.35;;;;;;;-1.05;100.00;94702.94;2079958;28;20072;-85
2023/02/12 02:02:03;;;;;;;13.70;10.02;;;;;;;-1.03;100.00;94705.25;2078582;28;20026;-84
2023/02/12 02:03:04;;;;;;;15.15;10.57;;;;;;;-1.02;100.00;94704.94;2077287;28;20030;-83
2023/02/12 02:04:12;;;;;;;14.25;10.15;;;;;;;-0.99;100.00;94708.06;2085877;28;20022;-83
2023/02/12 02:05:22;;;;;;;14.93;10.27;;;;;;;-1.01;100.00;94705.72;2079563;28;20445;-83
2023/02/12 02:06:38;;;;;;;15.10;10.38;;;;;;;-1.04;100.00;94711.59;2076557;28;20033;-86
2023/02/12 02:07:43;;;;;;;14.52;10.20;;;;;;;-0.97;100.00;94705.88;2080369;28;20032;-86
2023/02/12 02:08:45;;;;;;;12.95;9.90;;;;;;;-0.98;100.00;94709.59;2083970;28;20398;-85
2023/02/12 02:09:46;;;;;;;14.10;10.27;;;;;;;-1.02;100.00;94694.44;2077971;28;20022;-84
2023/02/12 02:10:47;;;;;;;13.10;10.05;;;;;;;-0.93;100.00;94696.34;2074231;28;20021;-84
2023/02/12 02:14:32;;;;;;;12.75;9.25;;;;;;;-0.98;100.00;94689.38;2090631;28;20128;-86
2023/02/12 02:15:35;;;;;;;12.90;10.10;;;;;;;-0.94;100.00;94685.06;2086832;28;20029;-85
2023/02/12 02:16:42;;;;;;;14.63;10.75;;;;;;;-0.95;100.00;94683.53;2080507;28;20025;-86
2023/02/12 02:19:15;;;;;;;;;;;;;;;-1.03;100.00;94681.66;2137539;27;20446;-85
2023/02/12 02:20:25;;;;;;;13.88;9.15;;;;;;;-0.95;100.00;94682.75;2111309;28;19915;-83
2023/02/12 02:21:31;;;;;;;12.80;9.55;;;;;;;-1.02;100.00;94689.19;2099561;28;20036;-85
2023/02/12 02:22:54;;;;;;;13.20;10.57;;;;;;;-0.99;100.00;94687.06;2098113;28;20029;-82
2023/02/12 02:24:33;;;;;;;12.63;9.95;;;;;;;-0.88;100.00;94689.13;2103573;28;20027;-85
2023/02/12 02:25:59;;;;;;;15.00;9.80;;;;;;;-0.90;100.00;94683.38;2115347;27;20020;-84
2023/02/12 02:27:29;;;;;;;15.32;10.45;;;;;;;-0.91;100.00;94681.84;2108840;28;20032;-82
2023/02/12 02:28:39;;;;;;;;;;;;;;;-0.92;100.00;94682.13;2107378;28;20036;-85
2023/02/12 02:30:10;;;;;;;13.65;9.40;;;;;;;-0.90;100.00;94680.00;2114287;27;19912;-85
2023/02/12 02:31:16;;;;;;;12.07;9.13;;;;;;;-0.84;100.00;94682.16;2114065;28;20518;-85
2023/02/12 02:32:25;;;;;;;14.70;10.27;;;;;;;-0.87;100.00;94685.41;2111866;27;20028;-86
2023/02/12 02:33:34;;;;;;;14.95;9.43;;;;;;;-0.90;100.00;94678.13;2116397;28;20141;-83
2023/02/12 02:35:14;;;;;;;13.90;10.90;;;;;;;-0.91;100.00;94679.22;2108011;28;20058;-84
2023/02/12 02:36:43;;;;;;;13.73;10.00;;;;;;;-0.90;100.00;94686.00;2111811;28;20390;-84
2023/02/12 02:37:56;;;;;;;13.43;10.00;;;;;;;-0.90;100.00;94677.38;2110457;28;20321;-84
2023/02/12 02:39:38;;;;;;;14.93;10.30;;;;;;;-0.88;100.00;94678.63;2105679;28;20032;-84
2023/02/12 02:40:55;;;;;;;12.55;9.77;;;;;;;-0.91;100.00;94686.31;2089967;28;20103;-83
2023/02/12 02:41:58;;;;;;;13.38;9.68;;;;;;;-0.91;100.00;94681.06;2107030;28;20028;-83
2023/02/12 02:43:16;;;;;;;14.70;10.27;;;;;;;-0.97;100.00;94682.28;2098828;28;20028;-86
2023/02/12 02:44:34;;;;;;;15.05;9.85;;;;;;;-0.93;100.00;94678.75;2098135;28;20505;-84
2023/02/12 02:45:35;;;;;;;13.60;9.98;;;;;;;-0.92;100.00;94679.50;2102737;28;20036;-82
2023/02/12 02:46:43;;;;;;;12.98;9.98;;;;;;;-0.89;100.00;94690.19;2102619;28;20029;-83
2023/02/12 02:47:52;;;;;;;14.05;10.05;;;;;;;-0.86;100.00;94686.19;2100124;28;20036;-85
2023/02/12 02:48:59;;;;;;;11.27;9.48;;;;;;;-0.88;100.00;94677.81;2105909;28;20086;-82
2023/02/12 02:50:13;;;;;;;13.38;9.55;;;;;;;-0.90;100.00;94682.63;2107771;28;20023;-83
2023/02/12 02:51:20;;;;;;;13.15;9.95;;;;;;;-0.90;100.00;94674.75;2097232;28;20028;-85
2023/02/12 02:52:30;;;;;;;12.63;8.98;;;;;;;-0.87;100.00;94679.41;2097164;28;20070;-84
2023/02/12 02:53:38;;;;;;;13.35;9.73;;;;;;;-0.88;100.00;94677.81;2107399;28;20388;-82
2023/02/12 02:54:44;;;;;;;10.95;9.00;;;;;;;-0.88;100.00;94673.38;2106914;28;20032;-85
2023/02/12 02:55:53;;;;;;;12.73;10.15;;;;;;;-0.86;100.00;94678.31;2098510;28;20055;-82
2023/02/12 02:57:00;;;;;;;11.95;9.63;;;;;;;-0.85;100.00;94680.63;2106179;28;20024;-83
2023/02/12 02:58:34;;;;;;;12.35;9.43;;;;;;;-0.85;100.00;94679.84;2098658;28;20029;-81
2023/02/12 02:59:42;;;;;;;14.85;10.57;;;;;;;-0.83;100.00;94675.09;2064431;28;20895;-85
2023/02/12 03:01:01;;;;;;;13.95;10.15;;;;;;;-0.83;100.00;94673.22;2066854;28;20038;-83
2023/02/12 03:02:43;;;;;;;14.30;11.05;;;;;;;-0.82;100.00;94671.38;2108228;28;20548;-84
2023/02/12 03:03:50;;;;;;;13.75;9.52;;;;;;;-0.78;100.00;94673.09;2060337;28;20098;-82
2023/02/12 03:04:57;;;;;;;12.23;9.57;;;;;;;-0.79;100.00;94668.91;2096473;28;21787;-83
2023/02/12 03:06:05;;;;;;;11.98;9.15;;;;;;;-0.78;100.00;94669.69;2100560;28;20027;-83
2023/02/12 03:07:27;;;;;;;14.75;10.02;;;;;;;-0.77;100.00;94672.00;2107930;27;20028;-84
2023/02/12 03:08:35;;;;;;;11.90;9.70;;;;;;;-0.77;100.00;94673.84;2105214;28;20020;-86
2023/02/12 03:09:42;;;;;;;12.10;10.02;;;;;;;-0.79;100.00;94681.25;2091279;28;20025;-83
2023/02/12 03:10:50;;;;;;;14.85;9.63;;;;;;;-0.77;100.00;94672.00;2107813;28;20114;-86
2023/02/12 03:11:55;;;;;;;13.70;9.70;;;;;;;-0.77;100.00;94674.63;2111687;28;20027;-81
2023/02/12 03:13:00;;;;;;;11.80;9.60;;;;;;;-0.77;100.00;94664.13;2097623;28;20036;-84
2023/02/12 03:14:14;;;;;;;13.40;10.40;;;;;;;-0.75;100.00;94663.81;2090546;28;20121;-82
2023/02/12 03:15:21;;;;;;;15.98;10.18;;;;;;;-0.73;100.00;94663.53;2101064;28;20028;-85
2023/02/12 03:16:32;;;;;;;14.05;9.23;;;;;;;-0.71;100.00;94664.75;2105186;28;20033;-82
2023/02/12 03:17:40;;;;;;;11.15;9.30;;;;;;;-0.69;100.00;94661.84;2098564;28;20029;-84
2023/02/12 03:18:53;;;;;;;13.43;10.05;;;;;;;-0.68;100.00;94669.41;2098563;28;20048;-86
2023/02/12 03:20:27;;;;;;;12.88;9.20;;;;;;;-0.69;100.00;94662.59;2104036;28;20103;-84
2023/02/12 03:21:45;;;;;;;13.02;8.82;;;;;;;-0.63;100.00;94650.88;2097370;28;20073;-85
2023/02/12 03:22:52;;;;;;;13.50;10.00;;;;;;;-0.65;100.00;94657.53;2100281;28;20028;-84
2023/02/12 03:24:11;;;;;;;14.13;9.52;;;;;;;-0.65;100.00;94663.53;2104677;28;20119;-84
2023/02/12 03:25:15;;;;;;;15.38;10.13;;;;;;;-0.68;100.00;94666.00;2099657;28;20043;-82
2023/02/12 03:26:26;;;;;;;13.43;10.18;;;;;;;-0.68;100.00;94664.13;2095225;28;20611;-83
2023/02/12 03:27:33;;;;;;;12.13;9.57;;;;;;;-0.67;100.00;94668.31;2101232;28;20050;-86
2023/02/12 03:28:37;;;;;;;12.65;10.27;;;;;;;-0.63;100.00;94657.97;2089100;28;20084;-86
2023/02/12 03:29:38;;;;;;;18.98;10.40;;;;;;;-0.61;100.00;94661.84;2105335;28;20034;-84
2023/02/12 03:31:05;;;;;;;15.27;9.60;;;;;;;-0.61;100.00;94664.47;2108042;28;20030;-83
2023/02/12 03:32:40;;;;;;;11.98;9.50;;;;;;;-0.63;100.00;94666.63;2076473;28;20244;-84
2023/02/12 03:34:20;;;;;;;15.35;8.75;;;;;;;-0.67;100.00;94670.16;2099602;28;20034;-85
2023/02/12 03:35:30;;;;;;;11.60;8.95;;;;;;;-0.61;100.00;94663.72;2092200;28;20024;-83
2023/02/12 03:36:52;;;;;;;14.88;9.20;;;;;;;-0.55;100.00;94665.09;2094519;28;20028;-86
2023/02/12 03:38:04;;;;;;;11.73;8.68;;;;;;;-0.53;100.00;94666.34;2101864;28;20034;-80
2023/02/12 03:39:20;;;;;;;13.18;9.13;;;;;;;-0.53;100.00;94666.34;2100650;28;20036;-81
2023/02/12 03:40:49;;;;;;;13.70;9.45;;;;;;;-0.54;100.00;94670.03;2101016;28;20388;-86
2023/02/12 03:42:04;;;;;;;12.93;9.23;;;;;;;-0.56;100.00;94671.44;2082431;28;20070;-83
2023/02/12 03:43:24;;;;;;;11.25;9.13;;;;;;;-0.58;100.00;94665.69;2103090;27;20684;-85
2023/02/12 03:44:48;;;;;;;13.65;8.35;;;;;;;-0.58;100.00;94666.47;2105167;28;20032;-86
2023/02/12 03:46:09;;;;;;;12.95;8.95;;;;;;;-0.55;100.00;94660.63;2100267;28;20028;-84
2023/02/12 03:47:18;;;;;;;11.25;8.57;;;;;;;-0.48;100.00;94657.53;2094211;28;20350;-82
2023/02/12 03:48:26;;;;;;;9.90;7.38;;;;;;;-0.50;100.00;94654.44;2083903;28;20156;-83
2023/02/12 03:49:54;;;;;;;11.73;7.47;;;;;;;-0.45;100.00;94664.78;2085340;28;20108;-81
2023/02/12 03:51:14;;;;;;;12.05;7.70;;;;;;;-0.44;100.00;94660.31;2106796;27;20023;-83
2023/02/12 03:52:15;;;;;;;10.05;7.45;;;;;;;-0.45;100.00;94666.66;2098173;28;20027;-85
2023/02/12 03:53:16;;;;;;;10.98;6.90;;;;;;;-0.45;100.00;94658.78;2091502;28;20051;-82
2023/02/12 03:54:20;;;;;;;10.10;7.43;;;;;;;-0.42;100.00;94663.41;2091719;28;20028;-86
2023/02/12 03:55:21;;;;;;;9.90;7.45;;;;;;;-0.43;100.00;94669.75;2100382;28;20039;-85
2023/02/12 03:56:31;;;;;;;11.27;7.35;;;;;;;-0.43;100.00;94673.16;2101917;28;20029;-85
2023/02/12 03:57:50;;;;;;;10.15;6.90;;;;;;;-0.43;100.00;94675.78;2091448;28;20115;-84
2023/02/12 03:58:51;;;;;;;9.55;6.82;;;;;;;-0.44;100.00;94678.69;2091816;28;20119;-84
2023/02/12 03:59:52;;;;;;;8.38;6.40;;;;;;;-0.44;100.00;94676.06;2086951;28;20041;-84
2023/02/12 04:00:54;;;;;;;8.65;6.63;;;;;;;-0.38;100.00;94674.84;2091395;28;20032;-84
2023/02/12 04:01:58;;;;;;;9.07;6.88;;;;;;;-0.41;100.00;94670.97;2099338;28;20512;-84
2023/02/12 04:03:00;;;;;;;8.30;6.78;;;;;;;-0.35;100.00;94671.59;2091885;28;20123;-85
2023/02/12 04:04:04;;;;;;;7.97;6.70;;;;;;;-0.36;100.00;94667.44;2085051;28;20463;-83
2023/02/12 04:05:06;;;;;;;9.30;7.53;;;;;;;-0.37;100.00;94666.66;2082991;28;20064;-86
2023/02/12 04:06:36;;;;;;;8.57;6.80;;;;;;;-0.39;100.00;94675.94;2083355;28;20032;-83
2023/02/12 04:07:37;;;;;;;8.25;6.38;;;;;;;-0.40;100.00;94667.25;2079086;28;20042;-84
2023/02/12 04:08:39;;;;;;;8.98;6.75;;;;;;;-0.41;100.00;94670.22;2091334;28;20012;-86
2023/02/12 04:09:41;;;;;;;8.55;6.57;;;;;;;-0.39;100.00;94678.56;2083488;28;20586;-86
2023/02/12 04:11:15;;;;;;;10.07;6.88;;;;;;;-0.43;100.00;94686.28;2099948;28;20024;-83
2023/02/12 04:12:45;;;;;;;10.43;7.10;;;;;;;-0.48;100.00;94685.63;2096505;28;20543;-84
2023/02/12 04:14:04;;;;;;;10.02;7.30;;;;;;;-0.46;100.00;94686.88;2096191;28;20134;-86
2023/02/12 04:15:33;;;;;;;9.88;7.20;;;;;;;-0.42;100.00;94677.31;2092820;28;20041;-84
2023/02/12 04:17:08;;;;;;;8.90;6.68;;;;;;;-0.37;100.00;94687.66;2097990;28;20104;-87
2023/02/12 04:18:19;;;;;;;9.85;6.85;;;;;;;-0.38;100.00;94683.50;2090281;28;20036;-84
2023/02/12 04:19:32;;;;;;;9.27;7.47;;;;;;;-0.39;100.00;94678.56;2097615;28;20546;-83
2023/02/12 04:20:47;;;;;;;9.85;6.90;;;;;;;-0.35;100.00;94672.41;2093125;28;20033;-85
2023/02/12 04:22:06;;;;;;;8.82;6.45;;;;;;;-0.36;100.00;94683.97;2084226;28;20128;-86
2023/02/12 04:23:31;;;;;;;10.10;6.90;;;;;;;-0.39;100.00;94681.97;2087195;28;20061;-85
2023/02/12 04:24:34;;;;;;;10.82;6.85;;;;;;;-0.37;100.00;94679.03;2088090;28;20028;-83
2023/02/12 04:25:53;;;;;;;11.20;6.97;;;;;;;-0.37;100.00;94685.03;2092471;28;20036;-82
2023/02/12 04:27:09;;;;;;;9.90;6.20;;;;;;;-0.33;100.00;94682.59;2109426;27;20069;-83
2023/02/12 04:28:26;;;;;;;12.82;6.75;;;;;;;-0.34;100.00;94688.94;2099825;28;20028;-85
2023/02/12 04:29:51;;;;;;;10.30;7.30;;;;;;;-0.35;100.00;94696.03;2095397;28;20127;-84
2023/02/12 04:31:01;;;;;;;11.70;7.55;;;;;;;-0.36;100.00;94693.69;2109417;27;20039;-84
2023/02/12 04:32:15;;;;;;;10.73;7.22;;;;;;;-0.38;100.00;94694.00;2106699;28;20043;-85
2023/02/12 04:33:20;;;;;;;10.05;6.60;;;;;;;-0.32;100.00;94699.88;2091726;28;20048;-85
2023/02/12 04:34:27;;;;;;;10.10;6.63;;;;;;;-0.29;100.00;94696.66;2092605;28;20028;-87
2023/02/12 04:35:36;;;;;;;10.57;7.82;;;;;;;-0.31;100.00;94691.72;2100590;28;20032;-83
2023/02/12 04:37:14;;;;;;;11.02;7.68;;;;;;;-0.31;100.00;94698.81;2092750;28;20028;-85
2023/02/12 04:38:23;;;;;;;13.00;7.25;;;;;;;-0.31;100.00;94690.91;2092792;28;20077;-84
2023/02/12 04:39:30;;;;;;;10.02;7.07;;;;;;;-0.31;100.00;94690.91;2099503;28;20033;-83
2023/02/12 04:40:32;;;;;;;10.20;6.70;;;;;;;-0.29;100.00;94689.53;2099804;28;20044;-84
2023/02/12 04:41:33;;;;;;;9.52;7.30;;;;;;;-0.28;100.00;94687.69;2088676;28;20470;-86
2023/02/12 04:42:45;;;;;;;11.95;7.10;;;;;;;-0.28;100.00;94685.06;2099618;28;20079;-85
2023/02/12 04:43:46;;;;;;;12.30;6.38;;;;;;;-0.26;100.00;94688.16;2089836;28;20086;-85
2023/02/12 04:44:47;;;;;;;10.45;6.45;;;;;;;-0.23;100.00;94686.75;2084743;28;20029;-84
2023/02/12 04:45:48;;;;;;;11.90;6.97;;;;;;;-0.29;100.00;94694.03;2091260;28;20031;-85
2023/02/12 04:46:49;;;;;;;8.82;6.68;;;;;;;-0.30;100.00;94682.75;2091242;28;20049;-85
2023/02/12 04:47:50;;;;;;;9.07;6.55;;;;;;;-0.28;100.00;94688.44;2100071;28;20497;-84
2023/02/12 04:48:58;;;;;;;9.80;6.43;;;;;;;-0.28;100.00;94692.94;2091107;28;20116;-83
2023/02/12 04:49:58;;;;;;;9.82;6.60;;;;;;;-0.26;100.00;94698.69;2093041;28;20575;-84
2023/02/12 04:51:00;;;;;;;11.07;6.95;;;;;;;-0.26;100.00;94693.41;2099477;28;20025;-85
2023/02/12 04:52:01;;;;;;;10.75;7.30;;;;;;;-0.28;100.00;94701.59;2091343;28;20021;-82
2023/02/12 04:53:02;;;;;;;10.65;7.00;;;;;;;-0.27;100.00;94700.50;2103263;28;20016;-87
2023/02/12 04:54:03;;;;;;;11.32;6.93;;;;;;;-0.26;100.00;94701.31;2107827;28;20103;-83
2023/02/12 04:55:04;;;;;;;10.50;7.03;;;;;;;-0.27;100.00;94697.88;2101059;28;20032;-83
2023/02/12 04:56:07;;;;;;;11.40;7.40;;;;;;;-0.25;100.00;94700.22;2088734;28;20035;-81
2023/02/12 04:57:08;;;;;;;10.60;7.45;;;;;;;-0.22;100.00;94701.44;2093322;28;20447;-85
2023/02/12 04:58:09;;;;;;;12.05;8.02;;;;;;;-0.22;100.00;94702.22;2094619;28;20020;-83
2023/02/12 04:59:11;;;;;;;11.70;7.80;;;;;;;-0.23;100.00;94699.91;2102245;28;20051;-81
2023/02/12 05:00:13;;;;;;;13.40;8.25;;;;;;;-0.23;100.00;94692.78;2093421;28;20062;-81
2023/02/12 05:01:14;;;;;;;11.18;7.50;;;;;;;-0.24;100.00;94704.38;2082727;28;20451;-84
2023/02/12 05:02:15;;;;;;;13.73;7.57;;;;;;;-0.24;100.00;94695.72;2089535;28;20043;-87
2023/02/12 05:03:16;;;;;;;12.35;7.80;;;;;;;-0.27;100.00;94691.84;2086783;28;20516;-85
2023/02/12 05:04:18;;;;;;;10.18;7.05;;;;;;;-0.20;100.00;94696.66;2099343;28;20155;-83
2023/02/12 05:05:20;;;;;;;10.85;6.82;;;;;;;-0.22;100.00;94694.34;2107890;28;20107;-84
2023/02/12 05:06:21;;;;;;;11.20;7.53;;;;;;;-0.24;100.00;94696.50;2099596;28;20508;-86
2023/02/12 05:07:22;;;;;;;13.18;7.85;;;;;;;-0.23;100.00;94687.53;2099485;28;20568;-83
2023/02/12 05:08:23;;;;;;;13.23;7.32;;;;;;;-0.23;100.00;94684.91;2099267;28;20098;-85
2023/02/12 05:09:24;;;;;;;12.38;7.47;;;;;;;-0.17;100.00;94691.56;2091757;28;20028;-84
2023/02/12 05:10:25;;;;;;;12.88;8.00;;;;;;;-0.21;100.00;94681.97;2091203;28;20029;-84
2023/02/12 05:11:26;;;;;;;11.65;7.45;;;;;;;-0.21;100.00;94684.63;2098315;28;20066;-85
2023/02/12 05:12:27;;;;;;;11.23;6.45;;;;;;;-0.27;100.00;94690.00;2099820;28;20028;-85
2023/02/12 05:13:28;;;;;;;10.50;6.90;;;;;;;-0.20;100.00;94681.66;2099421;28;20072;-86